Hawley Lake, Arizona
Current Conditions -  °F | °C
As of 3:35 PM on Monday 24 Nov 2014 (Local Time) from KSOW Reporting Station
Clear Clear  
Wind Chill: 28°   Ceiling: Unl
Heat Index: 39°   Visibility: 10mi
Dew Point: -2°   Wind: 24mph
Humidity: 17%   Direction: 330°NNW
Pressure: 30.24"   Gusts: 32mph
Location:  33.9836°N, 109.746°W
Report Text: KSOW 242235Z AUTO 33021G28KT 10SM CLR 04/M19 A3024 RMK AO2
Loading
Personal Weather Stations






























Interactive Weather Map New forecast layout! Learn more

10-Day Weather Forecast

Advertisements
Track Severe Weather on mobile